Time;durP1;ratioP1;P1;durP2;ratioP2;P2;SDS_P1;SDS_P2;PMS_P1;PMS_P2;Temp;Humidity;BMP_temperature;BMP_pressure;BME280_temperature;BME280_humidity;BME280_pressure;Samples;Min_cycle;Max_cycle;Signal;HPM_P1;HPM_P2
2023/10/13 00:00:29;;;;;;;5.70;3.90;;;;;;;;;;5127162;27;20541;-78
2023/10/13 00:02:59;;;;;;;6.77;4.53;;;;;;;;;;5135697;27;20457;-78
2023/10/13 00:05:30;;;;;;;14.30;5.00;;;;;;;;;;5140361;27;20449;-78
2023/10/13 00:08:00;;;;;;;10.13;4.30;;;;;;;;;;5132293;27;20445;-79
2023/10/13 00:10:28;;;;;;;10.87;7.10;;;;;;;;;;5140070;27;20487;-78
2023/10/13 00:13:05;;;;;;;10.00;5.27;;;;;;;;;;5139630;27;20513;-78
2023/10/13 00:15:38;;;;;;;11.70;5.10;;;;;;;;;;5140106;27;20448;-78
2023/10/13 00:18:12;;;;;;;6.53;4.50;;;;;;;;;;5139516;27;20476;-78
2023/10/13 00:20:46;;;;;;;9.23;3.80;;;;;;;;;;5139298;27;20475;-78
2023/10/13 00:23:14;;;;;;;6.83;3.70;;;;;;;;;;5131335;27;20444;-78
2023/10/13 00:25:49;;;;;;;8.83;4.00;;;;;;;;;;5139739;27;20482;-78
2023/10/13 00:28:23;;;;;;;7.70;3.80;;;;;;;;;;5128096;27;20838;-78
2023/10/13 00:30:53;;;;;;;9.37;3.07;;;;;;;;;;5134314;27;20569;-78
2023/10/13 00:33:22;;;;;;;10.00;4.60;;;;;;;;;;5130761;27;20538;-78
2023/10/13 00:35:52;;;;;;;6.80;3.10;;;;;;;;;;5137928;27;20455;-78
2023/10/13 00:38:20;;;;;;;5.90;3.53;;;;;;;;;;5130737;27;20453;-78
2023/10/13 00:40:52;;;;;;;8.07;3.37;;;;;;;;;;5139077;27;20567;-78
2023/10/13 00:43:38;;;;;;;12.13;3.73;;;;;;;;;;5139228;27;20930;-78
2023/10/13 00:46:08;;;;;;;8.60;4.23;;;;;;;;;;5131135;27;20452;-76
2023/10/13 00:48:42;;;;;;;7.03;3.93;;;;;;;;;;5134139;27;20452;-75
2023/10/13 00:51:18;;;;;;;5.07;4.10;;;;;;;;;;5126222;27;20508;-75
2023/10/13 00:53:47;;;;;;;7.57;3.63;;;;;;;;;;5128382;27;20495;-76
2023/10/13 00:56:23;;;;;;;8.33;4.10;;;;;;;;;;5133138;27;20471;-75
2023/10/13 00:58:51;;;;;;;4.60;3.70;;;;;;;;;;5134436;27;20480;-75
2023/10/13 01:01:21;;;;;;;7.17;3.70;;;;;;;;;;5131674;27;20469;-75
2023/10/13 01:03:48;;;;;;;5.73;4.17;;;;;;;;;;5129142;27;20551;-75
2023/10/13 01:06:20;;;;;;;7.30;4.77;;;;;;;;;;5125773;27;20884;-75
2023/10/13 01:08:50;;;;;;;5.97;3.83;;;;;;;;;;5134392;27;20464;-75
2023/10/13 01:11:23;;;;;;;14.57;4.90;;;;;;;;;;5125651;27;20539;-75
2023/10/13 01:13:51;;;;;;;5.33;3.50;;;;;;;;;;5127159;27;20490;-75
2023/10/13 01:16:19;;;;;;;7.43;3.90;;;;;;;;;;5124544;27;20457;-75
2023/10/13 01:18:47;;;;;;;7.60;4.33;;;;;;;;;;5125521;27;20799;-75
2023/10/13 01:21:20;;;;;;;6.00;3.27;;;;;;;;;;5131980;27;20529;-75
2023/10/13 01:23:48;;;;;;;7.43;3.60;;;;;;;;;;5128942;27;20471;-75
2023/10/13 01:26:21;;;;;;;7.80;3.80;;;;;;;;;;5133942;27;20465;-75
2023/10/13 01:28:49;;;;;;;10.30;4.10;;;;;;;;;;5125932;27;20513;-75
2023/10/13 01:31:26;;;;;;;5.80;3.37;;;;;;;;;;5131373;27;20488;-75
2023/10/13 01:33:54;;;;;;;5.23;3.50;;;;;;;;;;5122050;27;20485;-75
2023/10/13 01:36:24;;;;;;;7.03;4.10;;;;;;;;;;5124542;27;20464;-75
2023/10/13 01:38:51;;;;;;;6.57;3.53;;;;;;;;;;5133939;27;20452;-75
2023/10/13 01:41:19;;;;;;;5.10;3.37;;;;;;;;;;5125146;27;20505;-75
2023/10/13 01:43:45;;;;;;;6.57;3.20;;;;;;;;;;5133989;27;20541;-75
2023/10/13 01:46:15;;;;;;;6.17;3.27;;;;;;;;;;5134410;27;20445;-76
2023/10/13 01:48:43;;;;;;;6.10;4.13;;;;;;;;;;5115572;28;20465;-77
2023/10/13 01:51:11;;;;;;;8.60;4.60;;;;;;;;;;5133824;27;20500;-77
2023/10/13 01:53:37;;;;;;;13.20;4.10;;;;;;;;;;5134101;28;20494;-77
2023/10/13 01:56:10;;;;;;;8.10;3.60;;;;;;;;;;5134517;28;20449;-76
2023/10/13 01:58:36;;;;;;;5.60;4.00;;;;;;;;;;5125127;28;20484;-77
2023/10/13 02:01:07;;;;;;;8.27;4.13;;;;;;;;;;5133962;27;20970;-76
2023/10/13 02:03:33;;;;;;;11.37;4.43;;;;;;;;;;5133791;28;20481;-76
2023/10/13 02:06:04;;;;;;;14.17;4.13;;;;;;;;;;5133817;28;20452;-77
2023/10/13 02:08:31;;;;;;;6.90;4.50;;;;;;;;;;5133960;28;20536;-76
2023/10/13 02:11:00;;;;;;;5.73;3.70;;;;;;;;;;5117422;28;20473;-77
2023/10/13 02:13:29;;;;;;;7.23;4.60;;;;;;;;;;5113520;28;20907;-76
2023/10/13 02:16:02;;;;;;;9.73;3.87;;;;;;;;;;5129715;28;20437;-77
2023/10/13 02:18:34;;;;;;;10.17;4.30;;;;;;;;;;5115616;28;20919;-77
2023/10/13 02:21:05;;;;;;;8.53;4.43;;;;;;;;;;5133956;28;20522;-77
2023/10/13 02:23:33;;;;;;;11.60;4.20;;;;;;;;;;5126508;28;20815;-77
2023/10/13 02:26:10;;;;;;;7.83;4.80;;;;;;;;;;5133984;28;20539;-77
2023/10/13 02:28:38;;;;;;;9.13;5.17;;;;;;;;;;5134032;28;20804;-77
2023/10/13 02:31:06;;;;;;;8.30;4.40;;;;;;;;;;5124508;28;20493;-77
2023/10/13 02:33:33;;;;;;;7.83;3.83;;;;;;;;;;5113155;28;20500;-77
2023/10/13 02:36:03;;;;;;;5.63;3.63;;;;;;;;;;5113402;28;20529;-77
2023/10/13 02:38:41;;;;;;;9.60;4.10;;;;;;;;;;5125312;28;20455;-77
2023/10/13 02:41:11;;;;;;;10.60;4.57;;;;;;;;;;5133676;28;20456;-77
2023/10/13 02:43:39;;;;;;;7.60;4.77;;;;;;;;;;5133878;28;20490;-76
2023/10/13 02:46:06;;;;;;;7.67;4.17;;;;;;;;;;5134302;28;20490;-77
2023/10/13 02:48:39;;;;;;;8.00;4.83;;;;;;;;;;5133207;28;20460;-76
2023/10/13 02:51:15;;;;;;;6.43;4.13;;;;;;;;;;5133737;28;21065;-77
2023/10/13 02:53:47;;;;;;;7.43;4.57;;;;;;;;;;5133462;28;20923;-76
2023/10/13 02:56:13;;;;;;;7.70;4.77;;;;;;;;;;5133493;27;20488;-77
2023/10/13 02:58:45;;;;;;;5.67;3.90;;;;;;;;;;5133679;27;20448;-76
2023/10/13 03:01:19;;;;;;;9.63;5.70;;;;;;;;;;5137259;27;20464;-76
2023/10/13 03:03:50;;;;;;;10.60;4.87;;;;;;;;;;5136933;27;20531;-76
2023/10/13 03:06:17;;;;;;;8.30;3.57;;;;;;;;;;5137427;27;20463;-76
2023/10/13 03:08:44;;;;;;;10.03;4.60;;;;;;;;;;5136995;27;20451;-77
2023/10/13 03:11:13;;;;;;;6.70;4.70;;;;;;;;;;5136812;27;20891;-77
2023/10/13 03:13:44;;;;;;;6.13;3.77;;;;;;;;;;5136655;27;20491;-76
2023/10/13 03:16:15;;;;;;;6.50;3.80;;;;;;;;;;5119796;27;20456;-77
2023/10/13 03:18:51;;;;;;;8.17;4.60;;;;;;;;;;5137243;27;20448;-76
2023/10/13 03:21:28;;;;;;;5.50;4.03;;;;;;;;;;5119544;27;20488;-76
2023/10/13 03:24:04;;;;;;;11.33;4.67;;;;;;;;;;5136676;27;20455;-76
2023/10/13 03:26:34;;;;;;;8.90;5.40;;;;;;;;;;5128698;27;20455;-77
2023/10/13 03:29:07;;;;;;;8.47;4.73;;;;;;;;;;5136529;27;20922;-76
2023/10/13 03:31:37;;;;;;;8.63;4.63;;;;;;;;;;5136502;27;20473;-77
2023/10/13 03:34:04;;;;;;;8.27;4.30;;;;;;;;;;5136363;27;20573;-76
2023/10/13 03:39:18;;;;;;;8.30;4.83;;;;;;;;;;5136336;27;20419;-77
2023/10/13 03:41:53;;;;;;;8.57;4.70;;;;;;;;;;5133435;27;20465;-76
2023/10/13 03:44:22;;;;;;;9.60;4.63;;;;;;;;;;5136450;27;20440;-77
2023/10/13 03:46:54;;;;;;;10.23;5.30;;;;;;;;;;5136367;27;20456;-76
2023/10/13 03:49:22;;;;;;;13.57;7.00;;;;;;;;;;5136138;27;20481;-76
2023/10/13 03:51:53;;;;;;;9.50;4.70;;;;;;;;;;5136086;27;20897;-77
2023/10/13 03:54:21;;;;;;;5.23;4.67;;;;;;;;;;5136030;27;20508;-77
2023/10/13 03:56:52;;;;;;;8.23;4.47;;;;;;;;;;5136302;27;20468;-77
2023/10/13 03:59:19;;;;;;;6.27;4.80;;;;;;;;;;5136184;27;20448;-76
2023/10/13 04:01:58;;;;;;;7.90;5.73;;;;;;;;;;5136137;27;20824;-77
2023/10/13 04:04:34;;;;;;;6.43;4.90;;;;;;;;;;5135997;27;20445;-77
2023/10/13 04:07:26;;;;;;;6.53;4.90;;;;;;;;;;5136047;27;20783;-77
2023/10/13 04:11:38;;;;;;;6.07;5.33;;;;;;;;;;5109936;28;20446;-77
2023/10/13 04:18:34;;;;;;;6.90;4.63;;;;;;;;;;5135150;27;20440;-77
2023/10/13 04:21:18;;;;;;;9.33;4.60;;;;;;;;;;5118506;27;20576;-76
2023/10/13 04:26:37;;;;;;;8.90;5.30;;;;;;;;;;5117514;27;20899;-76
2023/10/13 04:29:10;;;;;;;9.27;4.63;;;;;;;;;;5135125;27;20516;-77
2023/10/13 04:31:55;;;;;;;13.53;5.10;;;;;;;;;;5123219;27;20543;-76
2023/10/13 04:34:28;;;;;;;8.73;5.10;;;;;;;;;;5134477;27;20487;-77
2023/10/13 04:37:11;;;;;;;12.40;6.27;;;;;;;;;;5135411;27;20453;-77
2023/10/13 04:39:39;;;;;;;8.13;4.93;;;;;;;;;;5119751;27;20468;-76
2023/10/13 04:42:26;;;;;;;9.83;5.90;;;;;;;;;;5126248;27;20454;-76
2023/10/13 04:44:58;;;;;;;12.00;7.77;;;;;;;;;;5114556;28;20441;-76
2023/10/13 04:47:29;;;;;;;10.13;5.03;;;;;;;;;;5126685;27;20811;-76
2023/10/13 04:50:00;;;;;;;8.17;5.40;;;;;;;;;;5135603;27;20509;-76
2023/10/13 04:53:01;;;;;;;9.37;6.03;;;;;;;;;;5135091;27;20464;-77
2023/10/13 04:55:48;;;;;;;11.47;5.93;;;;;;;;;;5118212;27;20482;-76
2023/10/13 04:59:15;;;;;;;6.40;4.47;;;;;;;;;;5134851;27;20456;-76
2023/10/13 05:01:39;;;;;;;15.63;6.17;;;;;;;;;;5134559;27;20496;-76
2023/10/13 05:04:21;;;;;;;11.87;4.13;;;;;;;;;;5134507;27;20558;-76
2023/10/13 05:46:20;;;;;;;9.93;5.33;;;;;;;;;;5133456;27;20846;-77
2023/10/13 05:48:51;;;;;;;8.03;5.90;;;;;;;;;;5124725;27;20520;-77
2023/10/13 05:51:43;;;;;;;15.87;5.37;;;;;;;;;;5116466;28;20477;-76
2023/10/13 06:30:03;;;;;;;10.53;5.00;;;;;;;;;;5118710;28;20961;-77
2023/10/13 06:32:30;;;;;;;11.83;6.60;;;;;;;;;;5132123;27;20888;-76
2023/10/13 06:34:58;;;;;;;5.67;4.60;;;;;;;;;;5136750;27;20607;-77
2023/10/13 06:37:30;;;;;;;10.93;4.90;;;;;;;;;;5137461;27;20453;-77
2023/10/13 06:39:59;;;;;;;9.60;5.93;;;;;;;;;;5137458;27;20953;-77
2023/10/13 06:42:27;;;;;;;9.60;5.47;;;;;;;;;;5128948;27;20476;-77
2023/10/13 06:44:54;;;;;;;8.87;5.00;;;;;;;;;;5137377;27;20475;-77
2023/10/13 06:47:24;;;;;;;6.33;5.50;;;;;;;;;;5136208;27;20544;-77
2023/10/13 06:49:52;;;;;;;8.13;5.70;;;;;;;;;;5137584;27;20476;-76
2023/10/13 06:52:19;;;;;;;11.47;4.90;;;;;;;;;;5118556;27;20520;-76
2023/10/13 06:54:47;;;;;;;5.27;3.80;;;;;;;;;;5137150;27;20484;-77
2023/10/13 06:57:15;;;;;;;7.57;4.43;;;;;;;;;;5126706;27;20448;-77
2023/10/13 06:59:42;;;;;;;9.37;5.53;;;;;;;;;;5130959;27;20931;-77
2023/10/13 07:02:20;;;;;;;7.70;5.73;;;;;;;;;;5128332;27;20477;-77
2023/10/13 07:04:56;;;;;;;7.57;4.67;;;;;;;;;;5137404;27;20886;-76
2023/10/13 07:07:23;;;;;;;18.57;5.87;;;;;;;;;;5120061;27;20449;-77
2023/10/13 07:09:55;;;;;;;10.27;5.47;;;;;;;;;;5137142;27;20455;-76
2023/10/13 07:12:26;;;;;;;15.73;4.77;;;;;;;;;;5133892;27;20563;-77
2023/10/13 07:14:59;;;;;;;5.27;4.03;;;;;;;;;;5132126;27;20913;-77
2023/10/13 07:17:26;;;;;;;7.23;5.10;;;;;;;;;;5124015;27;20564;-76
2023/10/13 07:19:56;;;;;;;6.77;4.40;;;;;;;;;;5131732;27;20449;-77
2023/10/13 07:22:25;;;;;;;8.70;5.30;;;;;;;;;;5134475;27;20489;-76
2023/10/13 07:24:53;;;;;;;5.93;4.30;;;;;;;;;;5131884;27;20540;-77
2023/10/13 07:27:24;;;;;;;9.73;4.60;;;;;;;;;;5128195;27;20448;-77
2023/10/13 07:30:05;;;;;;;5.27;4.20;;;;;;;;;;5128415;27;20536;-77
2023/10/13 07:32:35;;;;;;;4.60;4.20;;;;;;;;;;5128928;27;21045;-77
2023/10/13 07:35:07;;;;;;;11.63;4.23;;;;;;;;;;5128728;27;20571;-78
2023/10/13 07:37:34;;;;;;;7.90;5.50;;;;;;;;;;5120208;27;20467;-77
2023/10/13 07:40:11;;;;;;;6.80;5.07;;;;;;;;;;5135974;27;20895;-77
2023/10/13 07:42:40;;;;;;;7.27;4.07;;;;;;;;;;5136900;27;20452;-77
2023/10/13 07:45:11;;;;;;;5.30;3.77;;;;;;;;;;5134791;27;20965;-77
2023/10/13 07:47:39;;;;;;;8.07;4.20;;;;;;;;;;5125277;27;20796;-78
2023/10/13 07:50:09;;;;;;;7.50;3.77;;;;;;;;;;5133208;27;20460;-77
2023/10/13 07:52:37;;;;;;;5.90;3.77;;;;;;;;;;5131497;27;20875;-77
2023/10/13 07:55:13;;;;;;;7.03;3.30;;;;;;;;;;5124390;27;20489;-77
2023/10/13 07:57:54;;;;;;;9.37;4.70;;;;;;;;;;5131343;27;20456;-77
2023/10/13 08:00:46;;;;;;;5.70;3.90;;;;;;;;;;5126291;27;20456;-77
2023/10/13 08:03:31;;;;;;;7.63;4.83;;;;;;;;;;5127768;27;20449;-77
2023/10/13 08:06:06;;;;;;;5.53;3.43;;;;;;;;;;5127679;27;20492;-78
2023/10/13 08:08:38;;;;;;;7.07;4.37;;;;;;;;;;5105682;28;20486;-75
2023/10/13 08:11:24;;;;;;;4.73;3.83;;;;;;;;;;5125566;27;20972;-78
2023/10/13 08:13:56;;;;;;;7.83;4.83;;;;;;;;;;5129805;27;20512;-78
2023/10/13 08:16:28;;;;;;;9.87;5.13;;;;;;;;;;5136715;27;20465;-77
2023/10/13 08:19:01;;;;;;;3.97;3.27;;;;;;;;;;5128326;27;20968;-77
2023/10/13 08:21:31;;;;;;;5.57;4.40;;;;;;;;;;5127647;27;20483;-78
2023/10/13 08:24:05;;;;;;;9.27;4.20;;;;;;;;;;5129077;27;20466;-78
2023/10/13 08:26:57;;;;;;;6.40;3.73;;;;;;;;;;5124752;27;20460;-77
2023/10/13 08:35:09;;;;;;;7.20;3.93;;;;;;;;;;5134559;27;20919;-78
2023/10/13 08:37:56;;;;;;;5.90;3.97;;;;;;;;;;5125345;27;20454;-77
2023/10/13 08:43:11;;;;;;;7.20;4.60;;;;;;;;;;5122353;27;20456;-76
2023/10/13 08:45:58;;;;;;;6.67;4.63;;;;;;;;;;5137970;27;20456;-79
2023/10/13 08:48:32;;;;;;;6.73;3.67;;;;;;;;;;5130127;27;20480;-79
2023/10/13 08:51:10;;;;;;;6.10;4.93;;;;;;;;;;5138030;27;20463;-79
2023/10/13 08:53:52;;;;;;;8.47;4.63;;;;;;;;;;5138056;27;20452;-79
2023/10/13 08:56:33;;;;;;;4.60;3.50;;;;;;;;;;5139185;27;20460;-79
2023/10/13 08:59:05;;;;;;;4.10;3.33;;;;;;;;;;5135945;27;20474;-78
2023/10/13 09:01:35;;;;;;;5.60;3.13;;;;;;;;;;5137290;27;20894;-79
2023/10/13 09:06:46;;;;;;;11.30;4.57;;;;;;;;;;5138240;27;20934;-79
2023/10/13 09:09:26;;;;;;;4.50;3.50;;;;;;;;;;5131119;27;20444;-79
2023/10/13 09:12:07;;;;;;;9.03;3.57;;;;;;;;;;5132363;27;20495;-79
2023/10/13 09:14:44;;;;;;;7.23;3.73;;;;;;;;;;5127642;27;20489;-79
2023/10/13 09:17:12;;;;;;;7.23;4.23;;;;;;;;;;5131726;27;20514;-80
2023/10/13 09:19:49;;;;;;;12.60;4.60;;;;;;;;;;5138838;27;20468;-79
2023/10/13 09:22:27;;;;;;;10.07;6.00;;;;;;;;;;5139356;27;20523;-79
2023/10/13 09:25:02;;;;;;;10.17;3.53;;;;;;;;;;5130997;27;20436;-79
2023/10/13 09:27:29;;;;;;;6.30;3.60;;;;;;;;;;5127066;27;20965;-79
2023/10/13 09:29:57;;;;;;;4.70;3.30;;;;;;;;;;5133729;27;20452;-79
2023/10/13 09:32:23;;;;;;;12.23;3.93;;;;;;;;;;5138836;27;20467;-79
2023/10/13 09:34:51;;;;;;;5.80;4.00;;;;;;;;;;5129678;27;20583;-79
2023/10/13 09:37:20;;;;;;;10.73;3.30;;;;;;;;;;5129653;27;20452;-79
2023/10/13 09:39:52;;;;;;;10.00;4.10;;;;;;;;;;5129625;27;20452;-79
2023/10/13 09:42:26;;;;;;;5.90;4.77;;;;;;;;;;5135720;27;20994;-79
2023/10/13 09:44:55;;;;;;;10.03;3.40;;;;;;;;;;5132672;27;20445;-79
2023/10/13 09:47:30;;;;;;;13.40;4.30;;;;;;;;;;5135862;27;20452;-79
2023/10/13 09:50:03;;;;;;;5.90;3.40;;;;;;;;;;5130106;27;20460;-79
2023/10/13 09:52:31;;;;;;;8.17;4.37;;;;;;;;;;5128874;27;20865;-79
2023/10/13 09:55:08;;;;;;;11.33;4.10;;;;;;;;;;5136660;27;20550;-79
2023/10/13 09:57:44;;;;;;;6.70;4.27;;;;;;;;;;5128116;28;20465;-79
2023/10/13 10:00:29;;;;;;;8.93;3.37;;;;;;;;;;5124976;28;20445;-78
2023/10/13 10:03:14;;;;;;;7.93;3.40;;;;;;;;;;5137754;28;20536;-80
2023/10/13 10:05:40;;;;;;;5.20;3.70;;;;;;;;;;5128719;28;20564;-79
2023/10/13 10:08:10;;;;;;;4.73;4.00;;;;;;;;;;5129612;27;20492;-80
2023/10/13 10:10:46;;;;;;;8.27;4.83;;;;;;;;;;5139982;27;20480;-81
2023/10/13 10:13:18;;;;;;;6.53;3.57;;;;;;;;;;5133140;27;20542;-81
2023/10/13 10:15:47;;;;;;;5.93;3.80;;;;;;;;;;5134845;27;20519;-81
2023/10/13 10:18:21;;;;;;;4.63;3.70;;;;;;;;;;5135872;27;20433;-81
2023/10/13 10:20:51;;;;;;;6.80;3.80;;;;;;;;;;5135114;27;20495;-80
2023/10/13 10:23:35;;;;;;;12.13;4.10;;;;;;;;;;5142768;27;20516;-81
2023/10/13 10:26:11;;;;;;;4.80;3.20;;;;;;;;;;5129254;27;20506;-80
2023/10/13 10:28:41;;;;;;;10.80;4.40;;;;;;;;;;5137666;27;20467;-80
2023/10/13 10:31:15;;;;;;;5.90;3.47;;;;;;;;;;5141588;27;20490;-80
2023/10/13 10:33:42;;;;;;;7.27;3.23;;;;;;;;;;5132470;27;20965;-81
2023/10/13 10:36:14;;;;;;;3.93;3.03;;;;;;;;;;5132775;27;20513;-81
2023/10/13 10:38:54;;;;;;;7.20;3.70;;;;;;;;;;5135233;27;20464;-81
2023/10/13 10:41:30;;;;;;;7.57;3.70;;;;;;;;;;5136647;27;20542;-81
2023/10/13 10:44:02;;;;;;;7.10;4.13;;;;;;;;;;5137042;27;20519;-81
2023/10/13 10:46:37;;;;;;;4.57;3.30;;;;;;;;;;5137040;27;20548;-82
2023/10/13 10:49:08;;;;;;;12.23;4.07;;;;;;;;;;5143430;27;20456;-81
2023/10/13 10:51:43;;;;;;;8.80;3.70;;;;;;;;;;5142755;27;20480;-81
2023/10/13 10:54:19;;;;;;;5.97;3.17;;;;;;;;;;5133230;27;20505;-80
2023/10/13 10:56:52;;;;;;;7.00;3.80;;;;;;;;;;5135671;27;20511;-80
2023/10/13 10:59:25;;;;;;;4.67;2.97;;;;;;;;;;5135030;27;20461;-81
2023/10/13 11:01:52;;;;;;;5.83;3.40;;;;;;;;;;5144336;27;20472;-81
2023/10/13 11:04:24;;;;;;;10.17;3.20;;;;;;;;;;5135799;27;20527;-81
2023/10/13 11:06:54;;;;;;;6.20;3.10;;;;;;;;;;5144233;27;20447;-79
2023/10/13 11:09:31;;;;;;;8.50;3.73;;;;;;;;;;5136451;27;20874;-80
2023/10/13 11:12:03;;;;;;;7.90;3.90;;;;;;;;;;5140896;27;20457;-80
2023/10/13 11:14:32;;;;;;;9.03;3.57;;;;;;;;;;5133638;27;20453;-81
2023/10/13 11:17:04;;;;;;;4.57;2.93;;;;;;;;;;5128631;27;20461;-81
2023/10/13 11:19:38;;;;;;;7.40;3.27;;;;;;;;;;5132809;27;20452;-81
2023/10/13 11:22:11;;;;;;;5.10;2.50;;;;;;;;;;5132737;27;20471;-81
2023/10/13 11:24:43;;;;;;;6.97;3.13;;;;;;;;;;5133703;27;20478;-81
2023/10/13 11:27:21;;;;;;;6.27;2.87;;;;;;;;;;5135262;27;20753;-79
2023/10/13 11:29:52;;;;;;;7.10;3.20;;;;;;;;;;5122243;27;20816;-80
2023/10/13 11:32:20;;;;;;;5.07;2.70;;;;;;;;;;5133407;27;20465;-80
2023/10/13 11:34:52;;;;;;;5.30;3.23;;;;;;;;;;5140523;27;20488;-81
2023/10/13 11:37:38;;;;;;;3.60;2.73;;;;;;;;;;5133321;27;20446;-79
2023/10/13 11:40:12;;;;;;;7.60;3.53;;;;;;;;;;5143113;27;20456;-78
2023/10/13 11:42:43;;;;;;;7.43;3.33;;;;;;;;;;5135597;27;20480;-78
2023/10/13 11:45:28;;;;;;;12.13;5.40;;;;;;;;;;5134076;27;20452;-79
2023/10/13 11:47:59;;;;;;;14.63;4.50;;;;;;;;;;5138556;27;20448;-81
2023/10/13 11:50:34;;;;;;;6.73;3.20;;;;;;;;;;5131329;27;20453;-82
2023/10/13 11:53:01;;;;;;;9.30;3.70;;;;;;;;;;5140281;27;20456;-80
2023/10/13 11:55:28;;;;;;;6.17;2.93;;;;;;;;;;5117135;27;20495;-81
2023/10/13 11:57:59;;;;;;;7.80;4.40;;;;;;;;;;5138535;27;20505;-81
2023/10/13 12:00:50;;;;;;;5.70;3.20;;;;;;;;;;5136213;27;20548;-82
2023/10/13 12:06:19;;;;;;;6.00;3.17;;;;;;;;;;5136511;27;20436;-82
2023/10/13 12:08:51;;;;;;;13.10;3.13;;;;;;;;;;5137557;27;20456;-82
2023/10/13 12:11:38;;;;;;;8.80;3.33;;;;;;;;;;5135519;27;20469;-81
2023/10/13 12:14:16;;;;;;;4.83;2.53;;;;;;;;;;5134684;27;20452;-81
2023/10/13 12:16:48;;;;;;;4.90;2.90;;;;;;;;;;5129896;27;20819;-79
2023/10/13 12:19:16;;;;;;;4.80;3.23;;;;;;;;;;5139170;27;20517;-79
2023/10/13 12:21:44;;;;;;;10.53;3.47;;;;;;;;;;5136901;27;20556;-81
2023/10/13 12:24:30;;;;;;;8.40;3.43;;;;;;;;;;5134144;27;20463;-79
2023/10/13 12:26:57;;;;;;;7.00;3.13;;;;;;;;;;5127501;27;20458;-80
2023/10/13 12:29:28;;;;;;;4.93;3.00;;;;;;;;;;5133560;27;20533;-80
2023/10/13 12:32:08;;;;;;;5.87;2.73;;;;;;;;;;5133936;27;20499;-79
2023/10/13 12:34:57;;;;;;;9.20;2.77;;;;;;;;;;5112630;28;20461;-79
2023/10/13 12:38:04;;;;;;;6.40;3.10;;;;;;;;;;5138464;27;20466;-81
2023/10/13 12:51:51;;;;;;;11.10;3.80;;;;;;;;;;5130812;27;20518;-81
2023/10/13 12:54:23;;;;;;;6.53;3.10;;;;;;;;;;5138510;27;20522;-81
2023/10/13 12:56:56;;;;;;;7.40;2.90;;;;;;;;;;5140540;27;20519;-81
2023/10/13 12:59:26;;;;;;;8.50;4.10;;;;;;;;;;5133473;27;20524;-81
2023/10/13 13:01:53;;;;;;;8.00;3.20;;;;;;;;;;5133670;27;20838;-81
2023/10/13 13:04:23;;;;;;;12.80;5.10;;;;;;;;;;5140035;27;20441;-80
2023/10/13 13:06:53;;;;;;;8.40;3.20;;;;;;;;;;5135047;27;20453;-81
2023/10/13 13:09:26;;;;;;;10.43;3.80;;;;;;;;;;5121459;27;20456;-81
2023/10/13 13:11:57;;;;;;;9.60;4.43;;;;;;;;;;5132055;27;20469;-80
2023/10/13 13:14:28;;;;;;;4.20;3.00;;;;;;;;;;5137011;27;20459;-81
2023/10/13 13:17:01;;;;;;;5.37;3.47;;;;;;;;;;5129396;27;20867;-81
2023/10/13 13:19:29;;;;;;;6.63;2.90;;;;;;;;;;5134528;27;20540;-80
2023/10/13 13:21:56;;;;;;;7.67;2.80;;;;;;;;;;5126499;27;20465;-81
2023/10/13 13:24:23;;;;;;;8.40;3.07;;;;;;;;;;5140488;27;20455;-81
2023/10/13 13:26:54;;;;;;;5.47;2.70;;;;;;;;;;5136131;27;20450;-81
2023/10/13 13:29:21;;;;;;;12.50;3.00;;;;;;;;;;5141010;27;20476;-81
2023/10/13 13:31:50;;;;;;;10.00;2.50;;;;;;;;;;5133722;27;20474;-81
2023/10/13 13:34:19;;;;;;;10.10;3.00;;;;;;;;;;5132827;27;20485;-81
2023/10/13 13:36:52;;;;;;;7.00;2.70;;;;;;;;;;5133178;27;21036;-80
2023/10/13 13:39:28;;;;;;;7.83;2.80;;;;;;;;;;5123491;27;20473;-80
2023/10/13 13:41:56;;;;;;;12.23;3.00;;;;;;;;;;5133403;27;20622;-81
2023/10/13 13:44:28;;;;;;;6.07;2.93;;;;;;;;;;5142436;27;20483;-80
2023/10/13 13:46:57;;;;;;;6.13;2.67;;;;;;;;;;5133599;27;20471;-81
2023/10/13 13:49:30;;;;;;;11.10;4.23;;;;;;;;;;5136013;27;20461;-80
2023/10/13 13:52:04;;;;;;;20.13;3.50;;;;;;;;;;5134959;27;20968;-80
2023/10/13 13:54:31;;;;;;;5.13;3.37;;;;;;;;;;5131279;27;20546;-80
2023/10/13 13:56:58;;;;;;;12.13;3.23;;;;;;;;;;5139261;28;20487;-80
2023/10/13 13:59:33;;;;;;;7.73;3.13;;;;;;;;;;5130320;28;20442;-80
2023/10/13 14:02:00;;;;;;;7.03;3.10;;;;;;;;;;5135045;28;20568;-78
2023/10/13 14:04:31;;;;;;;11.83;3.30;;;;;;;;;;5132616;28;20548;-80
2023/10/13 14:07:00;;;;;;;8.43;3.10;;;;;;;;;;5141424;27;20459;-80
2023/10/13 14:09:36;;;;;;;10.73;3.50;;;;;;;;;;5130464;28;20517;-81
2023/10/13 14:14:55;;;;;;;6.73;3.40;;;;;;;;;;5139334;28;20955;-81
2023/10/13 14:17:28;;;;;;;11.60;3.60;;;;;;;;;;5131395;28;20556;-80
2023/10/13 14:19:55;;;;;;;9.73;3.10;;;;;;;;;;5131722;28;20454;-80
2023/10/13 14:22:26;;;;;;;9.70;3.43;;;;;;;;;;5127586;27;20469;-80
2023/10/13 14:24:55;;;;;;;5.27;2.47;;;;;;;;;;5129324;28;20453;-80
2023/10/13 14:27:25;;;;;;;14.00;2.77;;;;;;;;;;5131043;27;20474;-80
2023/10/13 14:29:53;;;;;;;10.63;3.27;;;;;;;;;;5129626;28;20457;-80
2023/10/13 14:32:24;;;;;;;7.70;3.07;;;;;;;;;;5128456;28;20449;-80
2023/10/13 14:34:56;;;;;;;9.63;3.00;;;;;;;;;;5129859;28;20521;-80
2023/10/13 14:37:29;;;;;;;4.77;2.90;;;;;;;;;;5137233;28;20492;-81
2023/10/13 14:39:56;;;;;;;5.63;3.00;;;;;;;;;;5127597;28;20452;-80
2023/10/13 14:42:24;;;;;;;5.27;2.80;;;;;;;;;;5126506;28;20516;-80
2023/10/13 14:44:55;;;;;;;8.83;3.33;;;;;;;;;;5130560;28;20447;-80
2023/10/13 14:47:24;;;;;;;8.50;3.37;;;;;;;;;;5131475;27;20446;-78
2023/10/13 14:49:54;;;;;;;10.33;3.77;;;;;;;;;;5132186;28;20973;-80
2023/10/13 14:52:21;;;;;;;8.17;2.90;;;;;;;;;;5119635;28;20915;-80
2023/10/13 14:54:55;;;;;;;9.20;3.33;;;;;;;;;;5134191;27;20457;-81
2023/10/13 14:57:24;;;;;;;11.97;4.23;;;;;;;;;;5139303;27;20498;-81
2023/10/13 14:59:51;;;;;;;8.70;2.60;;;;;;;;;;5136041;27;20466;-79
2023/10/13 15:02:18;;;;;;;10.83;3.00;;;;;;;;;;5141073;27;20523;-79
2023/10/13 15:04:48;;;;;;;19.50;3.30;;;;;;;;;;5139452;27;20491;-78
2023/10/13 15:07:16;;;;;;;10.50;3.43;;;;;;;;;;5120991;27;20520;-79
2023/10/13 15:09:43;;;;;;;6.33;3.50;;;;;;;;;;5138384;27;20892;-77
2023/10/13 15:12:13;;;;;;;6.73;4.07;;;;;;;;;;5138206;27;20560;-79
2023/10/13 15:14:42;;;;;;;5.77;3.50;;;;;;;;;;5138156;27;20448;-78
2023/10/13 15:17:10;;;;;;;11.50;3.87;;;;;;;;;;5138639;27;20571;-78
2023/10/13 15:19:38;;;;;;;10.90;3.07;;;;;;;;;;5137238;27;20452;-77
2023/10/13 15:22:06;;;;;;;7.60;3.63;;;;;;;;;;5138856;27;20632;-78
2023/10/13 15:24:44;;;;;;;8.13;3.80;;;;;;;;;;5138426;27;20524;-78
2023/10/13 15:27:21;;;;;;;10.13;4.27;;;;;;;;;;5140329;27;20461;-79
2023/10/13 15:29:50;;;;;;;10.87;4.00;;;;;;;;;;5139911;27;20496;-80
2023/10/13 15:35:14;;;;;;;8.13;3.80;;;;;;;;;;5032841;28;20481;-77
2023/10/13 15:37:41;;;;;;;5.63;3.30;;;;;;;;;;5117888;27;20568;-79
2023/10/13 15:40:15;;;;;;;7.77;3.10;;;;;;;;;;5112938;28;20455;-80
2023/10/13 15:42:44;;;;;;;11.60;4.63;;;;;;;;;;5137700;27;20958;-78
2023/10/13 15:45:19;;;;;;;7.83;4.27;;;;;;;;;;5139146;27;20868;-79
2023/10/13 15:47:49;;;;;;;10.90;4.20;;;;;;;;;;5140142;27;20456;-79
2023/10/13 15:50:20;;;;;;;10.10;3.77;;;;;;;;;;5138147;27;20456;-78
2023/10/13 15:52:47;;;;;;;8.73;3.73;;;;;;;;;;5138549;27;20468;-78
2023/10/13 15:55:18;;;;;;;8.63;3.30;;;;;;;;;;5120545;27;20480;-79
2023/10/13 15:57:52;;;;;;;7.87;5.20;;;;;;;;;;5132230;27;20488;-78
2023/10/13 16:00:26;;;;;;;11.77;4.53;;;;;;;;;;5136446;27;20496;-78
2023/10/13 16:02:54;;;;;;;12.83;4.63;;;;;;;;;;5137426;27;20482;-78
2023/10/13 16:05:23;;;;;;;5.60;3.83;;;;;;;;;;5136703;27;20452;-78
2023/10/13 16:07:50;;;;;;;9.80;6.40;;;;;;;;;;5136606;27;20457;-78
2023/10/13 16:10:18;;;;;;;14.73;5.43;;;;;;;;;;5136470;27;20495;-78
2023/10/13 16:12:47;;;;;;;5.87;4.60;;;;;;;;;;5137410;27;20447;-78
2023/10/13 16:15:14;;;;;;;8.63;4.77;;;;;;;;;;5136260;27;20457;-78
2023/10/13 16:17:41;;;;;;;16.43;5.80;;;;;;;;;;5136843;27;20510;-78
2023/10/13 16:20:15;;;;;;;16.77;5.40;;;;;;;;;;5137347;27;20445;-78
2023/10/13 16:22:45;;;;;;;7.40;4.33;;;;;;;;;;5132677;27;20888;-78
2023/10/13 16:25:13;;;;;;;6.60;3.87;;;;;;;;;;5126793;27;20449;-78
2023/10/13 16:27:42;;;;;;;8.30;5.47;;;;;;;;;;5137277;27;20444;-78
2023/10/13 16:30:16;;;;;;;13.33;6.40;;;;;;;;;;5137175;27;20472;-79
2023/10/13 16:32:46;;;;;;;8.70;4.70;;;;;;;;;;5139402;27;20451;-79
2023/10/13 16:35:16;;;;;;;12.87;6.37;;;;;;;;;;5139278;27;20456;-79
2023/10/13 16:37:44;;;;;;;14.70;9.90;;;;;;;;;;5135775;27;20493;-79
2023/10/13 16:40:12;;;;;;;14.37;7.80;;;;;;;;;;5121503;27;20477;-78
2023/10/13 16:42:39;;;;;;;11.80;6.67;;;;;;;;;;5113759;27;20536;-77
2023/10/13 16:45:15;;;;;;;17.17;12.40;;;;;;;;;;5138753;27;20452;-78
2023/10/13 16:47:44;;;;;;;42.70;27.37;;;;;;;;;;5132077;27;20444;-78
2023/10/13 16:50:14;;;;;;;28.70;15.80;;;;;;;;;;5128637;27;20943;-77
2023/10/13 16:52:41;;;;;;;24.00;13.70;;;;;;;;;;5125219;27;20536;-78
2023/10/13 16:55:09;;;;;;;42.87;27.77;;;;;;;;;;5129977;27;20446;-79
2023/10/13 16:57:38;;;;;;;24.53;17.13;;;;;;;;;;5134985;27;20488;-78
2023/10/13 17:00:06;;;;;;;23.30;13.33;;;;;;;;;;5143817;27;20457;-78
2023/10/13 17:02:37;;;;;;;16.27;8.67;;;;;;;;;;5134343;27;20472;-78
2023/10/13 17:05:08;;;;;;;16.13;8.67;;;;;;;;;;5134311;27;20455;-78